Terminal Aerodrome Forecast
Issued by NWS

Home | Current Version | Previous Version | Text Only | Print | Product List | Glossary On
Versions: 1 2 3 4 5 6 7 8 9 10 11 12 13 14 15 16 17 18 19 20 21 22 23 24 25 26 27 28 29 30 31 32 33 34 35 36 37 38 39
000
FTUS43 KIWX 250537
TAFSBN
TAF
KSBN 250537Z 2506/2606 24008KT P6SM FEW250
     FM251400 27011KT P6SM FEW250
     FM251600 26012G19KT P6SM FEW050
     FM252300 22008KT P6SM FEW050 SCT200=

USA.gov is the U.S. government's official web portal to all federal, state and local government web resources and services.